Time;durP1;ratioP1;P1;durP2;ratioP2;P2;SDS_P1;SDS_P2;PMS_P1;PMS_P2;Temp;Humidity;BMP_temperature;BMP_pressure;BME280_temperature;BME280_humidity;BME280_pressure;Samples;Min_cycle;Max_cycle;Signal;HPM_P1;HPM_P2
2024/04/05 00:01:46;;;;;;;2.70;1.73;;;14.00;68.60;;;;;;5014705;28;20466;-71
2024/04/05 00:04:13;;;;;;;3.40;1.37;;;14.00;69.10;;;;;;5014938;28;20482;-71
2024/04/05 00:06:39;;;;;;;3.27;1.63;;;14.00;68.70;;;;;;5014556;28;20945;-71
2024/04/05 00:09:06;;;;;;;3.90;1.53;;;14.00;69.00;;;;;;5014605;28;20478;-71
2024/04/05 00:11:34;;;;;;;6.20;2.10;;;14.00;69.30;;;;;;5014188;28;20435;-71
2024/04/05 00:14:00;;;;;;;4.17;2.10;;;14.00;69.80;;;;;;5014781;28;20813;-71
2024/04/05 00:16:26;;;;;;;3.93;2.30;;;14.00;70.20;;;;;;5014741;28;20530;-71
2024/04/05 00:18:55;;;;;;;3.07;1.70;;;13.90;70.10;;;;;;5014808;28;20513;-71
2024/04/05 00:21:21;;;;;;;3.10;1.90;;;13.90;70.70;;;;;;4996231;28;20531;-71
2024/04/05 00:23:49;;;;;;;4.50;1.60;;;13.90;71.20;;;;;;4994973;28;21001;-71
2024/04/05 00:26:15;;;;;;;3.37;2.20;;;13.90;71.10;;;;;;4994652;28;20431;-72
2024/04/05 00:28:44;;;;;;;5.50;1.93;;;13.80;71.20;;;;;;4994922;28;20449;-71
2024/04/05 00:31:10;;;;;;;5.87;3.20;;;13.80;71.30;;;;;;4994941;28;20432;-71
2024/04/05 00:33:37;;;;;;;3.33;1.77;;;13.70;71.80;;;;;;4994804;28;20881;-71
2024/04/05 00:36:05;;;;;;;4.70;2.20;;;13.70;71.50;;;;;;5012459;28;20513;-71
2024/04/05 00:38:32;;;;;;;3.60;1.80;;;13.70;72.00;;;;;;5014396;28;20769;-71
2024/04/05 00:40:58;;;;;;;2.93;1.80;;;13.70;72.20;;;;;;5014091;28;20595;-71
2024/04/05 00:43:25;;;;;;;3.57;1.97;;;13.60;72.40;;;;;;5014314;28;20526;-72
2024/04/05 00:45:53;;;;;;;7.53;2.57;;;13.60;72.10;;;;;;5014576;28;20469;-71
2024/04/05 00:48:21;;;;;;;3.67;2.00;;;13.60;72.30;;;;;;5014310;28;20443;-71
2024/04/05 00:50:51;;;;;;;4.33;2.03;;;13.60;73.00;;;;;;4995801;28;20973;-71
2024/04/05 00:53:21;;;;;;;6.23;2.10;;;13.60;72.90;;;;;;4994130;28;20471;-71
2024/04/05 00:55:49;;;;;;;5.87;2.20;;;13.60;72.70;;;;;;4995456;28;20432;-71
2024/04/05 00:58:15;;;;;;;4.37;1.60;;;13.60;72.80;;;;;;4994103;28;20439;-71
2024/04/05 01:00:42;;;;;;;3.00;1.50;;;13.60;73.00;;;;;;5011726;28;20473;-71
2024/04/05 01:03:09;;;;;;;3.33;2.20;;;13.50;73.30;;;;;;5013971;28;20439;-71
2024/04/05 01:05:39;;;;;;;3.70;1.70;;;13.50;73.80;;;;;;5013977;28;20468;-71
2024/04/05 01:08:07;;;;;;;3.53;1.80;;;13.40;74.10;;;;;;5013969;28;20522;-71
2024/04/05 01:10:35;;;;;;;3.20;1.63;;;13.50;74.20;;;;;;5013661;28;20929;-71
2024/04/05 01:13:02;;;;;;;2.40;1.30;;;13.40;74.50;;;;;;5007298;28;20482;-71
2024/04/05 01:15:29;;;;;;;3.80;1.83;;;13.40;74.70;;;;;;4994116;28;20929;-71
2024/04/05 01:17:58;;;;;;;3.67;1.90;;;13.40;75.40;;;;;;4994124;28;20522;-71
2024/04/05 01:20:27;;;;;;;3.80;2.00;;;13.40;75.50;;;;;;4994151;28;20486;-71
2024/04/05 01:22:53;;;;;;;3.20;2.00;;;13.50;75.50;;;;;;4994863;28;20495;-71
2024/04/05 01:25:22;;;;;;;3.80;2.13;;;13.50;75.30;;;;;;4994025;28;20473;-71
2024/04/05 01:27:48;;;;;;;3.23;1.83;;;13.50;74.70;;;;;;4994056;28;20468;-71
2024/04/05 01:30:15;;;;;;;2.40;1.40;;;13.60;75.50;;;;;;4993997;28;20795;-71
2024/04/05 01:32:49;;;;;;;3.00;1.50;;;13.60;75.30;;;;;;4994700;28;20467;-71
2024/04/05 01:35:16;;;;;;;4.90;1.77;;;13.70;75.70;;;;;;4996709;28;20750;-71
2024/04/05 01:37:42;;;;;;;5.23;1.77;;;13.60;75.10;;;;;;4997750;28;20467;-71
2024/04/05 01:40:10;;;;;;;3.00;1.67;;;13.60;74.90;;;;;;4998130;28;20582;-71
2024/04/05 01:42:37;;;;;;;3.40;1.57;;;13.60;74.90;;;;;;5010948;28;20430;-71
2024/04/05 01:45:05;;;;;;;2.30;1.23;;;13.60;74.60;;;;;;5015357;28;20481;-71
2024/04/05 01:47:31;;;;;;;2.70;1.70;;;13.60;74.80;;;;;;4997599;28;20439;-71
2024/04/05 01:49:58;;;;;;;3.53;1.80;;;13.60;74.50;;;;;;4997869;28;20493;-71
2024/04/05 01:52:24;;;;;;;4.60;1.93;;;13.60;73.80;;;;;;4997928;28;20837;-71
2024/04/05 01:54:53;;;;;;;3.73;1.53;;;13.60;73.50;;;;;;4997493;28;20475;-71
2024/04/05 01:57:19;;;;;;;3.03;1.47;;;13.60;73.90;;;;;;5010470;28;20477;-71
2024/04/05 01:59:52;;;;;;;2.30;1.10;;;13.60;74.30;;;;;;5017443;28;20953;-71
2024/04/05 02:02:19;;;;;;;2.60;1.50;;;13.60;74.80;;;;;;5017101;28;20481;-71
2024/04/05 02:04:46;;;;;;;2.90;1.30;;;13.60;75.30;;;;;;5016782;28;20522;-71
2024/04/05 02:07:12;;;;;;;3.23;1.87;;;13.60;75.10;;;;;;5017189;28;20439;-71
2024/04/05 02:09:39;;;;;;;3.33;1.70;;;13.70;75.80;;;;;;5017216;28;20537;-71
2024/04/05 02:12:06;;;;;;;2.50;1.40;;;13.70;76.00;;;;;;5015382;28;20518;-72
2024/04/05 02:14:34;;;;;;;2.70;1.50;;;13.60;76.10;;;;;;5016733;28;20497;-71
2024/04/05 02:17:01;;;;;;;2.83;1.50;;;13.60;76.30;;;;;;5003901;28;20435;-71
2024/04/05 02:19:28;;;;;;;2.73;1.37;;;13.60;76.20;;;;;;4997421;28;20490;-71
2024/04/05 02:21:54;;;;;;;2.50;1.33;;;13.60;76.50;;;;;;5009378;28;20477;-71
2024/04/05 02:24:21;;;;;;;3.40;1.37;;;13.60;76.50;;;;;;5016719;28;20494;-71
2024/04/05 02:26:47;;;;;;;2.40;1.40;;;13.50;76.70;;;;;;5016565;28;20441;-72
2024/04/05 02:29:14;;;;;;;2.83;2.03;;;13.60;76.90;;;;;;5016756;28;20537;-71
2024/04/05 02:31:40;;;;;;;4.90;1.80;;;13.60;76.70;;;;;;5014919;28;20459;-71
2024/04/05 02:34:08;;;;;;;2.90;1.53;;;13.50;76.70;;;;;;5016287;28;20509;-71
2024/04/05 02:36:34;;;;;;;3.20;1.60;;;13.60;74.50;;;;;;5016687;28;20474;-71
2024/04/05 02:39:01;;;;;;;3.23;1.73;;;13.50;74.50;;;;;;5016314;28;20469;-71
2024/04/05 02:41:27;;;;;;;4.73;1.60;;;13.40;75.40;;;;;;5016677;28;20434;-71
2024/04/05 02:43:54;;;;;;;3.90;2.00;;;13.40;75.80;;;;;;5016467;28;20592;-71
2024/04/05 02:46:20;;;;;;;3.13;1.63;;;13.30;75.80;;;;;;5014775;28;20867;-71
2024/04/05 02:48:47;;;;;;;6.20;1.60;;;13.20;76.70;;;;;;5015973;28;20482;-71
2024/04/05 02:51:14;;;;;;;3.03;1.87;;;13.20;76.50;;;;;;5016346;28;20481;-71
2024/04/05 02:53:41;;;;;;;3.60;1.90;;;13.20;77.20;;;;;;5016393;28;20565;-71
2024/04/05 02:56:10;;;;;;;3.33;1.53;;;13.20;77.30;;;;;;5008975;28;20475;-71
2024/04/05 02:58:37;;;;;;;2.50;1.50;;;13.20;77.90;;;;;;4996626;28;20468;-71
2024/04/05 03:01:04;;;;;;;4.10;2.00;;;13.20;78.20;;;;;;4996555;28;20444;-71
2024/04/05 03:03:30;;;;;;;2.93;1.80;;;13.20;77.90;;;;;;4996196;28;20475;-71
2024/04/05 03:05:57;;;;;;;5.33;2.10;;;13.20;77.70;;;;;;4996661;28;20522;-71
2024/04/05 03:08:24;;;;;;;3.03;1.50;;;13.20;77.30;;;;;;4996166;28;20443;-71
2024/04/05 03:10:51;;;;;;;2.80;1.80;;;13.20;76.90;;;;;;5002736;28;20431;-71
2024/04/05 03:13:17;;;;;;;4.50;1.87;;;13.20;76.90;;;;;;5015601;28;20506;-71
2024/04/05 03:15:44;;;;;;;2.70;1.40;;;13.20;76.10;;;;;;5015888;28;20479;-71
2024/04/05 03:18:10;;;;;;;2.80;1.20;;;13.20;75.20;;;;;;5015601;28;20481;-71
2024/04/05 03:20:37;;;;;;;3.33;1.93;;;13.10;74.40;;;;;;5001088;28;20459;-71
2024/04/05 03:23:04;;;;;;;3.13;1.60;;;13.20;75.00;;;;;;4996304;28;20495;-71
2024/04/05 03:25:33;;;;;;;4.20;1.60;;;13.10;75.70;;;;;;4995665;28;20492;-72
2024/04/05 03:27:59;;;;;;;3.83;2.10;;;13.10;76.50;;;;;;4995778;28;20467;-71
2024/04/05 03:30:26;;;;;;;3.30;1.90;;;13.10;76.70;;;;;;4996290;28;20466;-71
2024/04/05 03:32:51;;;;;;;4.07;2.33;;;13.00;76.20;;;;;;4995672;28;20501;-71
2024/04/05 03:35:19;;;;;;;4.40;2.93;;;13.00;76.30;;;;;;5009587;28;20554;-71
2024/04/05 03:37:48;;;;;;;3.73;2.30;;;12.90;76.20;;;;;;5015529;28;20800;-71
2024/04/05 03:40:15;;;;;;;3.07;2.07;;;12.90;75.60;;;;;;5015776;28;20434;-71
2024/04/05 03:42:43;;;;;;;4.07;2.00;;;12.90;75.60;;;;;;5015422;28;20881;-71
2024/04/05 03:45:09;;;;;;;3.17;1.70;;;12.90;75.20;;;;;;5001238;28;20527;-71
2024/04/05 03:47:36;;;;;;;3.40;2.10;;;12.90;75.50;;;;;;4996126;28;20530;-71
2024/04/05 03:50:02;;;;;;;2.50;1.50;;;12.90;75.90;;;;;;4995608;28;20478;-71
2024/04/05 03:52:28;;;;;;;2.60;1.20;;;13.00;76.60;;;;;;4995764;28;20471;-71
2024/04/05 03:54:54;;;;;;;2.93;1.27;;;13.00;76.20;;;;;;4995515;28;20566;-71
2024/04/05 03:57:22;;;;;;;2.50;1.30;;;13.10;76.40;;;;;;4994659;28;20471;-71
2024/04/05 03:59:49;;;;;;;3.30;1.57;;;13.10;76.10;;;;;;5007952;28;20939;-71
2024/04/05 04:02:16;;;;;;;6.30;2.07;;;13.10;75.50;;;;;;5014976;28;20792;-71
2024/04/05 04:04:42;;;;;;;3.20;1.33;;;13.10;74.10;;;;;;5015134;28;20527;-71
2024/04/05 04:07:09;;;;;;;3.27;1.70;;;13.10;72.50;;;;;;5014731;28;20877;-71
2024/04/05 04:09:36;;;;;;;3.50;2.00;;;13.10;71.60;;;;;;5012891;28;20964;-71
2024/04/05 04:12:03;;;;;;;3.67;2.20;;;13.10;71.10;;;;;;5014963;28;20514;-71
2024/04/05 04:14:29;;;;;;;4.87;1.60;;;13.10;71.20;;;;;;5013197;28;20471;-71
2024/04/05 04:16:57;;;;;;;4.50;2.10;;;13.10;70.60;;;;;;5012988;28;20501;-71
2024/04/05 04:19:23;;;;;;;4.07;2.20;;;13.10;71.30;;;;;;5014975;28;20530;-71
2024/04/05 04:21:51;;;;;;;4.03;2.30;;;13.10;71.20;;;;;;5014561;28;20513;-71
2024/04/05 04:24:19;;;;;;;3.60;2.10;;;13.10;71.30;;;;;;5014297;28;20474;-71
2024/04/05 04:26:46;;;;;;;2.73;1.87;;;13.10;71.90;;;;;;5014786;28;20442;-71
2024/04/05 04:29:12;;;;;;;3.57;2.00;;;13.10;71.60;;;;;;5003478;28;20459;-71
2024/04/05 04:31:39;;;;;;;2.93;1.50;;;13.00;71.10;;;;;;4994714;28;20488;-71
2024/04/05 04:34:07;;;;;;;3.33;1.40;;;13.00;70.70;;;;;;4994847;28;20565;-71
2024/04/05 04:36:33;;;;;;;4.70;1.47;;;13.00;70.10;;;;;;4994638;28;20502;-71
2024/04/05 04:38:59;;;;;;;2.90;1.23;;;13.00;69.50;;;;;;4994881;28;20861;-71
2024/04/05 04:41:27;;;;;;;3.10;1.10;;;13.00;69.30;;;;;;4998797;28;20474;-71
2024/04/05 04:43:55;;;;;;;4.20;1.67;;;13.00;69.20;;;;;;5011927;28;20447;-71
2024/04/05 04:46:22;;;;;;;2.73;1.30;;;13.00;69.40;;;;;;5013862;28;20485;-71
2024/04/05 04:48:48;;;;;;;3.63;1.63;;;13.00;69.40;;;;;;5013540;28;20485;-71
2024/04/05 04:51:16;;;;;;;2.27;1.20;;;13.00;69.90;;;;;;5013834;28;20470;-71
2024/04/05 04:53:42;;;;;;;2.57;1.43;;;13.00;69.90;;;;;;5006147;28;20503;-71
2024/04/05 04:56:12;;;;;;;2.43;1.40;;;13.00;69.80;;;;;;4993491;28;20815;-71
2024/04/05 04:58:38;;;;;;;3.03;1.10;;;13.00;68.70;;;;;;4993570;28;20963;-71
2024/04/05 05:01:07;;;;;;;2.27;1.07;;;13.00;68.60;;;;;;4993312;28;20459;-71
2024/04/05 05:03:33;;;;;;;3.13;0.93;;;13.00;68.50;;;;;;4993756;28;20479;-71
2024/04/05 05:06:00;;;;;;;3.90;1.13;;;13.00;67.40;;;;;;4993699;28;20444;-71
2024/04/05 05:08:28;;;;;;;3.23;2.13;;;13.00;67.60;;;;;;5000520;28;20450;-71
2024/04/05 05:10:55;;;;;;;4.10;1.60;;;13.00;67.70;;;;;;5012951;28;20443;-72
2024/04/05 05:13:21;;;;;;;2.40;0.80;;;13.10;66.80;;;;;;5013350;28;20462;-71
2024/04/05 05:15:48;;;;;;;2.60;0.80;;;13.10;67.00;;;;;;5013223;28;20517;-71
2024/04/05 05:18:14;;;;;;;3.37;1.20;;;13.10;66.30;;;;;;5010134;28;20463;-71
2024/04/05 05:20:46;;;;;;;3.00;1.50;;;13.10;67.50;;;;;;4993618;28;20428;-71
2024/04/05 05:23:13;;;;;;;3.20;1.53;;;13.20;67.70;;;;;;4993294;28;20465;-71
2024/04/05 05:25:43;;;;;;;3.77;1.10;;;13.10;68.30;;;;;;4993026;28;20452;-72
2024/04/05 05:28:09;;;;;;;2.40;1.40;;;13.20;66.60;;;;;;4993287;28;20474;-71
2024/04/05 05:30:36;;;;;;;2.43;1.43;;;13.30;67.00;;;;;;4994188;28;20843;-72
2024/04/05 05:33:03;;;;;;;3.87;1.67;;;13.30;68.10;;;;;;4991694;28;20482;-73
2024/04/05 05:35:30;;;;;;;2.20;1.30;;;13.40;65.40;;;;;;5011438;28;20496;-73
2024/04/05 05:37:56;;;;;;;2.30;1.37;;;13.40;65.20;;;;;;5012967;28;20423;-72
2024/04/05 05:40:23;;;;;;;2.67;1.60;;;13.50;65.80;;;;;;5012543;28;20778;-71
2024/04/05 05:42:50;;;;;;;3.20;1.50;;;13.50;64.70;;;;;;5012156;28;20937;-71
2024/04/05 05:45:21;;;;;;;3.07;1.63;;;13.50;63.30;;;;;;5012892;28;20493;-71
2024/04/05 05:47:52;;;;;;;2.30;1.03;;;13.50;64.10;;;;;;5000709;28;20437;-72
2024/04/05 05:50:19;;;;;;;3.57;1.70;;;13.60;64.50;;;;;;4993721;28;20913;-71
2024/04/05 05:52:45;;;;;;;3.00;1.60;;;13.60;65.40;;;;;;5002623;28;20431;-71
2024/04/05 05:55:12;;;;;;;6.50;2.00;;;13.70;66.40;;;;;;4996982;28;20474;-72
2024/04/05 05:57:38;;;;;;;2.63;1.47;;;13.70;64.70;;;;;;5004252;28;20424;-72
2024/04/05 06:00:09;;;;;;;3.13;1.70;;;13.80;63.90;;;;;;5004602;28;20973;-71
2024/04/05 06:02:41;;;;;;;4.43;1.93;;;13.90;64.40;;;;;;5012285;28;20896;-72
2024/04/05 06:05:11;;;;;;;7.90;3.60;;;13.90;64.60;;;;;;5009362;28;20435;-72
2024/04/05 06:07:38;;;;;;;4.53;2.70;;;13.90;63.80;;;;;;4991312;28;20423;-71
2024/04/05 06:10:05;;;;;;;3.77;1.97;;;13.90;63.70;;;;;;4993878;28;20821;-72
2024/04/05 06:12:35;;;;;;;5.77;3.33;;;14.00;63.30;;;;;;5012231;28;20446;-71
2024/04/05 06:15:04;;;;;;;4.67;3.30;;;14.00;63.20;;;;;;5012651;28;20555;-71
2024/04/05 06:17:35;;;;;;;3.20;1.93;;;14.00;63.30;;;;;;5012500;28;20447;-71
2024/04/05 06:20:05;;;;;;;2.97;1.80;;;14.00;63.60;;;;;;5012760;28;20914;-72
2024/04/05 06:22:32;;;;;;;3.13;1.40;;;14.00;63.80;;;;;;5015811;28;20524;-72
2024/04/05 06:24:59;;;;;;;6.10;1.80;;;14.10;63.50;;;;;;5014557;28;20534;-71
2024/04/05 06:27:25;;;;;;;4.80;2.03;;;14.10;63.50;;;;;;5005191;28;20501;-72
2024/04/05 06:29:53;;;;;;;3.83;2.13;;;14.10;64.20;;;;;;5015206;28;20449;-72
2024/04/05 06:32:19;;;;;;;4.50;2.10;;;14.10;64.20;;;;;;4997144;28;20481;-72
2024/04/05 06:34:48;;;;;;;4.50;1.60;;;14.30;62.80;;;;;;4996711;28;20532;-71
2024/04/05 06:37:14;;;;;;;2.83;1.50;;;14.20;63.40;;;;;;4995882;28;20439;-71
2024/04/05 06:39:41;;;;;;;3.67;1.77;;;14.30;65.30;;;;;;4995602;28;20444;-72
2024/04/05 06:42:07;;;;;;;3.60;2.20;;;14.40;64.30;;;;;;4995250;28;20467;-71
2024/04/05 06:44:36;;;;;;;4.23;2.60;;;14.50;65.00;;;;;;5000589;28;20513;-71
2024/04/05 06:47:04;;;;;;;8.97;3.23;;;14.70;65.10;;;;;;5005848;28;20439;-71
2024/04/05 06:49:32;;;;;;;6.07;3.20;;;14.90;64.30;;;;;;4999992;28;20427;-71
2024/04/05 06:52:00;;;;;;;3.80;2.27;;;14.90;64.00;;;;;;5001549;28;20436;-72
2024/04/05 06:54:28;;;;;;;4.20;2.17;;;15.00;61.10;;;;;;4996750;28;20475;-72
2024/04/05 06:56:54;;;;;;;5.53;2.60;;;15.10;61.40;;;;;;5015824;28;20517;-72
2024/04/05 06:59:20;;;;;;;6.60;2.77;;;15.10;60.70;;;;;;5016123;28;20522;-71
2024/04/05 07:01:46;;;;;;;5.80;2.37;;;15.10;60.10;;;;;;5015807;28;20478;-71
2024/04/05 07:04:13;;;;;;;6.90;3.33;;;15.20;61.90;;;;;;5016050;28;20502;-71
2024/04/05 07:06:39;;;;;;;5.10;3.23;;;15.20;62.20;;;;;;5015939;28;20849;-72
2024/04/05 07:09:08;;;;;;;6.00;2.80;;;15.30;63.90;;;;;;5015952;28;20467;-71
2024/04/05 07:11:37;;;;;;;4.17;2.17;;;15.30;64.00;;;;;;5015931;28;20831;-72
2024/04/05 07:14:04;;;;;;;4.10;2.00;;;15.40;62.50;;;;;;5015690;28;20438;-71
2024/04/05 07:16:30;;;;;;;3.73;1.80;;;15.60;63.70;;;;;;5015893;28;20489;-71
2024/04/05 07:18:57;;;;;;;3.37;1.50;;;15.90;61.50;;;;;;5015512;28;20443;-71
2024/04/05 07:21:24;;;;;;;3.80;1.60;;;16.30;56.80;;;;;;5015867;28;20502;-71
2024/04/05 07:23:51;;;;;;;3.70;1.07;;;16.50;56.40;;;;;;5015853;28;20554;-72
2024/04/05 07:26:18;;;;;;;4.30;1.37;;;17.00;54.70;;;;;;5015882;28;20440;-72
2024/04/05 07:28:45;;;;;;;3.03;1.40;;;17.30;52.90;;;;;;5015603;28;20446;-72
2024/04/05 07:31:13;;;;;;;2.97;0.90;;;17.70;53.20;;;;;;5014896;28;20952;-72
2024/04/05 07:33:40;;;;;;;1.97;0.90;;;18.20;51.30;;;;;;5014967;28;20495;-71
2024/04/05 07:36:06;;;;;;;3.40;1.20;;;18.60;49.30;;;;;;5015008;28;21004;-71
2024/04/05 07:38:33;;;;;;;2.83;1.10;;;19.00;49.30;;;;;;5015031;28;20497;-72
2024/04/05 07:41:03;;;;;;;2.90;1.53;;;19.40;48.10;;;;;;5015462;28;20438;-72
2024/04/05 07:43:31;;;;;;;2.63;1.33;;;19.90;47.40;;;;;;5015338;28;20446;-71
2024/04/05 07:45:57;;;;;;;3.10;1.07;;;20.40;47.40;;;;;;5014923;28;20470;-71
2024/04/05 07:48:25;;;;;;;2.23;0.90;;;21.00;47.60;;;;;;5014870;28;20485;-72
2024/04/05 07:50:51;;;;;;;2.80;0.90;;;21.30;44.00;;;;;;5015187;28;20779;-72
2024/04/05 07:53:18;;;;;;;5.17;1.27;;;21.40;44.40;;;;;;5015210;28;20874;-72
2024/04/05 07:55:44;;;;;;;2.60;0.70;;;21.70;46.40;;;;;;5013294;28;20983;-72
2024/04/05 07:58:11;;;;;;;2.27;0.70;;;22.30;43.80;;;;;;5014612;28;20479;-72
2024/04/05 08:00:38;;;;;;;2.93;0.90;;;22.80;41.10;;;;;;5014839;28;20466;-72
2024/04/05 08:03:06;;;;;;;2.67;1.10;;;23.40;42.40;;;;;;5014620;28;20474;-72
2024/04/05 08:05:34;;;;;;;2.80;0.73;;;23.80;38.60;;;;;;5014527;28;20442;-72
2024/04/05 08:08:01;;;;;;;2.30;0.80;;;24.30;38.80;;;;;;5014602;28;20898;-72
2024/04/05 08:10:30;;;;;;;2.73;1.10;;;24.60;36.00;;;;;;5014725;28;20832;-72
2024/04/05 08:12:57;;;;;;;4.47;1.10;;;24.90;36.70;;;;;;5014390;28;20921;-72
2024/04/05 08:15:24;;;;;;;3.07;1.43;;;25.40;36.10;;;;;;5014536;28;20521;-72
2024/04/05 08:17:52;;;;;;;3.73;1.40;;;25.60;34.40;;;;;;5014399;28;20434;-72
2024/04/05 08:20:18;;;;;;;3.73;1.30;;;25.80;34.10;;;;;;5014011;28;20999;-72
2024/04/05 08:22:45;;;;;;;4.30;1.77;;;25.90;33.00;;;;;;5014278;28;20470;-72
2024/04/05 08:25:11;;;;;;;3.37;1.20;;;25.70;33.10;;;;;;5014677;28;20431;-72
2024/04/05 08:27:38;;;;;;;2.87;1.23;;;25.70;34.30;;;;;;5014271;28;20449;-72
2024/04/05 08:30:05;;;;;;;4.07;1.27;;;25.60;32.00;;;;;;5014485;28;20427;-72
2024/04/05 08:32:32;;;;;;;2.10;0.80;;;25.50;32.60;;;;;;5014368;28;20445;-72
2024/04/05 08:35:00;;;;;;;3.53;1.00;;;25.30;32.40;;;;;;5013922;28;20506;-72
2024/04/05 08:37:27;;;;;;;2.00;0.80;;;25.30;32.90;;;;;;5013900;28;20445;-72
2024/04/05 08:39:53;;;;;;;2.20;0.60;;;25.40;32.20;;;;;;5014293;28;20434;-71
2024/04/05 08:42:20;;;;;;;2.20;0.80;;;25.20;31.60;;;;;;5013881;28;20494;-72
2024/04/05 08:44:47;;;;;;;2.83;1.00;;;25.20;31.00;;;;;;5013653;28;20508;-72
2024/04/05 08:47:15;;;;;;;2.40;0.93;;;25.20;32.80;;;;;;5014156;28;20443;-72
2024/04/05 08:49:42;;;;;;;3.70;0.93;;;25.30;31.80;;;;;;5014140;28;20473;-72
2024/04/05 08:52:10;;;;;;;3.70;0.70;;;25.50;30.80;;;;;;5014209;28;20443;-72
2024/04/05 08:54:36;;;;;;;2.30;0.80;;;25.80;30.50;;;;;;5013624;28;20565;-72
2024/04/05 08:57:05;;;;;;;3.33;1.40;;;26.00;30.90;;;;;;5013700;28;20534;-72
2024/04/05 08:59:33;;;;;;;2.30;0.90;;;26.20;30.20;;;;;;5013691;28;20961;-72
2024/04/05 09:02:01;;;;;;;3.37;1.30;;;26.40;30.20;;;;;;5013878;28;20504;-72
2024/04/05 09:04:27;;;;;;;3.90;0.80;;;26.60;29.80;;;;;;5013938;28;20474;-72
2024/04/05 09:06:55;;;;;;;2.33;0.77;;;26.70;29.00;;;;;;5013848;28;20438;-72
2024/04/05 09:09:30;;;;;;;2.57;1.00;;;27.00;29.10;;;;;;5013826;28;20435;-72
2024/04/05 09:12:02;;;;;;;2.87;0.80;;;27.40;28.70;;;;;;5013693;28;20474;-72
2024/04/05 09:14:28;;;;;;;2.40;0.90;;;27.80;28.10;;;;;;5013648;28;20521;-72
2024/04/05 09:16:55;;;;;;;2.63;0.97;;;28.40;29.00;;;;;;5013751;28;20872;-72
2024/04/05 09:19:22;;;;;;;2.67;0.77;;;29.10;29.00;;;;;;5014023;28;20469;-72
2024/04/05 09:21:49;;;;;;;4.00;1.00;;;29.60;25.20;;;;;;5013380;28;21032;-72
2024/04/05 09:24:15;;;;;;;2.77;0.90;;;29.70;25.30;;;;;;5013901;28;21024;-72
2024/04/05 09:26:45;;;;;;;2.10;0.83;;;30.20;25.10;;;;;;5013539;28;20435;-73
2024/04/05 09:29:13;;;;;;;3.50;0.93;;;30.30;24.50;;;;;;5013658;28;21048;-72
2024/04/05 09:31:40;;;;;;;3.40;1.00;;;30.40;25.20;;;;;;5013625;28;20523;-72
2024/04/05 09:34:08;;;;;;;2.20;0.90;;;30.90;23.90;;;;;;5013633;28;20478;-73
2024/04/05 09:36:36;;;;;;;2.47;0.80;;;31.40;22.90;;;;;;5013300;28;20828;-72
2024/04/05 09:39:05;;;;;;;2.57;0.90;;;31.80;22.30;;;;;;5013299;28;20526;-73
2024/04/05 09:41:34;;;;;;;2.30;0.70;;;32.20;21.40;;;;;;5013481;28;20525;-74
2024/04/05 09:44:04;;;;;;;3.10;0.80;;;32.50;20.60;;;;;;5013245;28;20434;-73
2024/04/05 09:46:31;;;;;;;3.57;0.80;;;32.90;19.30;;;;;;5013060;28;20466;-72
2024/04/05 09:48:58;;;;;;;2.37;0.90;;;33.20;20.10;;;;;;5013454;28;20433;-72
2024/04/05 09:51:42;;;;;;;2.30;0.80;;;33.50;21.00;;;;;;5013576;28;20975;-73
2024/04/05 09:54:10;;;;;;;3.03;1.10;;;33.80;20.10;;;;;;5013090;28;20415;-72
2024/04/05 09:56:39;;;;;;;2.40;0.90;;;34.20;19.80;;;;;;5016421;28;20534;-73
2024/04/05 09:59:10;;;;;;;2.70;0.80;;;34.50;17.80;;;;;;5016949;28;20949;-72
2024/04/05 10:01:39;;;;;;;3.80;0.97;;;34.30;18.10;;;;;;5017232;28;20458;-72
2024/04/05 10:04:07;;;;;;;2.03;0.80;;;34.60;17.90;;;;;;5016844;28;20945;-72
2024/04/05 10:06:38;;;;;;;3.07;0.70;;;34.80;17.30;;;;;;5016942;28;20866;-73
2024/04/05 10:09:16;;;;;;;2.63;0.70;;;34.80;16.60;;;;;;5017258;28;20427;-72
2024/04/05 10:11:44;;;;;;;8.90;1.47;;;34.30;17.10;;;;;;5016755;28;20449;-72
2024/04/05 10:14:20;;;;;;;4.27;0.83;;;33.60;16.70;;;;;;5016954;28;20841;-72
2024/04/05 10:16:47;;;;;;;3.20;1.33;;;33.50;18.40;;;;;;5017010;28;20521;-72
2024/04/05 10:19:13;;;;;;;2.37;0.70;;;33.80;19.30;;;;;;5016755;28;20913;-72
2024/04/05 10:21:40;;;;;;;4.03;0.90;;;34.20;19.10;;;;;;5016871;28;20443;-72
2024/04/05 10:24:06;;;;;;;2.40;0.80;;;34.60;19.20;;;;;;5017070;28;20883;-72
2024/04/05 10:26:34;;;;;;;2.83;0.83;;;35.00;18.50;;;;;;5016391;28;20470;-72
2024/04/05 10:29:04;;;;;;;4.23;0.93;;;35.30;18.30;;;;;;5015388;28;20988;-72
2024/04/05 10:31:33;;;;;;;3.07;0.77;;;35.50;18.50;;;;;;5016624;28;20435;-72
2024/04/05 10:34:01;;;;;;;2.70;0.80;;;35.50;17.30;;;;;;5016306;28;20837;-72
2024/04/05 10:36:29;;;;;;;2.33;0.60;;;35.70;19.10;;;;;;5016553;28;20446;-72
2024/04/05 10:38:55;;;;;;;3.43;0.80;;;35.90;17.90;;;;;;5016523;28;20439;-72
2024/04/05 10:41:27;;;;;;;3.13;1.10;;;35.90;18.20;;;;;;5016578;28;20449;-73
2024/04/05 10:44:01;;;;;;;2.57;0.90;;;35.90;16.90;;;;;;5016538;28;20758;-72
2024/04/05 10:46:31;;;;;;;2.67;0.70;;;35.70;16.90;;;;;;5016033;28;21019;-73
2024/04/05 10:49:02;;;;;;;2.20;0.83;;;35.50;17.10;;;;;;5016541;28;20438;-72
2024/04/05 10:51:34;;;;;;;1.87;0.53;;;35.20;16.60;;;;;;5016364;28;20427;-72
2024/04/05 10:54:10;;;;;;;2.60;0.90;;;35.10;18.00;;;;;;5016424;28;20423;-72
2024/04/05 10:56:42;;;;;;;2.47;0.83;;;35.20;19.10;;;;;;5016254;28;20426;-72
2024/04/05 10:59:13;;;;;;;2.00;0.63;;;35.10;19.00;;;;;;5016313;28;20423;-75
2024/04/05 11:01:41;;;;;;;4.57;1.40;;;35.40;18.60;;;;;;5016413;28;20423;-72
2024/04/05 11:04:10;;;;;;;2.17;0.73;;;35.50;18.70;;;;;;5016013;28;20478;-72
2024/04/05 11:06:41;;;;;;;3.50;0.90;;;35.70;19.20;;;;;;5015856;28;20466;-72
2024/04/05 11:09:09;;;;;;;2.20;0.73;;;36.00;18.30;;;;;;5016099;28;20510;-72
2024/04/05 11:11:36;;;;;;;2.00;0.60;;;36.00;19.00;;;;;;5015968;28;20548;-72
2024/04/05 11:14:03;;;;;;;2.30;0.70;;;36.30;17.00;;;;;;5015525;28;20449;-72
2024/04/05 11:16:30;;;;;;;2.93;0.87;;;36.20;17.00;;;;;;5016062;28;20439;-72
2024/04/05 11:18:56;;;;;;;3.63;0.90;;;36.10;17.00;;;;;;5015549;28;20470;-72
2024/04/05 11:21:25;;;;;;;2.93;0.70;;;36.10;16.60;;;;;;5010590;28;20464;-72
2024/04/05 11:23:53;;;;;;;2.40;0.80;;;35.90;17.20;;;;;;4996216;28;20478;-72
2024/04/05 11:26:21;;;;;;;1.87;0.60;;;36.00;16.80;;;;;;4995607;28;20525;-72
2024/04/05 11:28:48;;;;;;;2.00;0.60;;;35.90;16.20;;;;;;4996248;28;20435;-73
2024/04/05 11:31:15;;;;;;;2.77;0.70;;;35.80;16.70;;;;;;4996086;28;20831;-72
2024/04/05 11:33:41;;;;;;;2.20;0.67;;;35.90;17.80;;;;;;5008299;28;20525;-72
2024/04/05 11:36:09;;;;;;;2.20;0.70;;;35.90;16.70;;;;;;5014383;28;21044;-72
2024/04/05 11:38:37;;;;;;;3.10;0.90;;;35.70;15.30;;;;;;5015353;28;20797;-72
2024/04/05 11:41:04;;;;;;;2.10;0.70;;;35.70;15.70;;;;;;5014509;28;20449;-72
2024/04/05 11:43:30;;;;;;;3.00;0.70;;;35.50;15.60;;;;;;5014756;28;20513;-72
2024/04/05 11:46:01;;;;;;;4.53;0.70;;;35.50;16.40;;;;;;5014795;28;20470;-72
2024/04/05 11:48:29;;;;;;;1.87;0.60;;;35.50;17.20;;;;;;5014207;28;20439;-72
2024/04/05 11:50:56;;;;;;;2.60;0.70;;;35.40;17.50;;;;;;5014167;28;20478;-72
2024/04/05 11:53:22;;;;;;;2.10;0.60;;;35.40;15.80;;;;;;5014476;28;20489;-72
2024/04/05 11:55:50;;;;;;;3.53;0.80;;;35.40;15.70;;;;;;5013927;28;20443;-72
2024/04/05 11:58:17;;;;;;;2.67;0.80;;;35.40;17.40;;;;;;5015168;28;20463;-72
2024/04/05 12:00:48;;;;;;;2.83;0.80;;;35.30;16.20;;;;;;5014584;28;20481;-72
2024/04/05 12:03:14;;;;;;;2.10;0.70;;;35.10;15.30;;;;;;5014602;28;20960;-72
2024/04/05 12:05:43;;;;;;;2.13;0.80;;;35.10;15.00;;;;;;5014488;28;20477;-73
2024/04/05 12:08:09;;;;;;;2.57;0.80;;;35.10;15.80;;;;;;5014952;28;20553;-72
2024/04/05 12:10:36;;;;;;;2.80;0.70;;;35.20;15.40;;;;;;5014511;28;20454;-72
2024/04/05 12:13:04;;;;;;;3.20;1.00;;;35.10;16.20;;;;;;5014443;28;20983;-72
2024/04/05 12:15:31;;;;;;;3.00;0.93;;;34.70;17.00;;;;;;5015172;28;20866;-72
2024/04/05 12:17:57;;;;;;;3.33;1.00;;;34.70;18.00;;;;;;5014440;28;20470;-72
2024/04/05 12:20:24;;;;;;;2.00;0.60;;;34.60;17.40;;;;;;5014767;28;20451;-72
2024/04/05 12:22:51;;;;;;;2.00;0.70;;;34.50;17.20;;;;;;5014398;28;21049;-72
2024/04/05 12:25:22;;;;;;;2.87;0.80;;;34.60;16.10;;;;;;5014286;28;20992;-72
2024/04/05 12:27:48;;;;;;;2.33;0.90;;;34.80;16.60;;;;;;5014601;28;20423;-72
2024/04/05 12:30:17;;;;;;;2.40;0.60;;;34.70;15.00;;;;;;5014249;28;20442;-72
2024/04/05 12:32:43;;;;;;;2.20;0.70;;;34.30;14.60;;;;;;5014069;28;20481;-72
2024/04/05 12:35:10;;;;;;;2.10;0.70;;;33.90;14.80;;;;;;5014676;28;20789;-72
2024/04/05 12:37:37;;;;;;;2.10;0.70;;;33.70;14.70;;;;;;5014014;28;20933;-72
2024/04/05 12:40:14;;;;;;;2.93;0.70;;;33.30;14.30;;;;;;5014421;28;20849;-72
2024/04/05 12:42:40;;;;;;;2.87;0.90;;;33.20;15.00;;;;;;5014399;28;20469;-72
2024/04/05 12:45:08;;;;;;;2.13;0.60;;;33.30;16.50;;;;;;5014131;28;20439;-72
2024/04/05 12:47:37;;;;;;;2.00;0.60;;;33.00;14.80;;;;;;5013896;28;20477;-72
2024/04/05 12:50:03;;;;;;;2.70;0.80;;;32.90;15.00;;;;;;5014192;28;20479;-72